Time;durP1;ratioP1;P1;durP2;ratioP2;P2;SDS_P1;SDS_P2;PMS_P1;PMS_P2;Temp;Humidity;BMP_temperature;BMP_pressure;BME280_temperature;BME280_humidity;BME280_pressure;Samples;Min_cycle;Max_cycle;Signal;HPM_P1;HPM_P2
2021/08/23 00:02:09;;;;;;;6.65;3.58;;;;;;;-139.48;100.00;61774.03;5093067;28;20178;-69
2021/08/23 00:04:53;;;;;;;5.78;3.25;;;;;;;-139.48;100.00;61774.03;5091634;28;20047;-68
2021/08/23 00:07:37;;;;;;;6.45;3.45;;;;;;;-139.48;100.00;61774.03;5092417;28;20055;-69
2021/08/23 00:10:21;;;;;;;7.15;3.53;;;;;;;-139.48;100.00;61774.03;5091703;28;20227;-69
2021/08/23 00:13:06;;;;;;;5.07;3.58;;;;;;;-139.48;100.00;61774.03;5092665;28;20043;-69
2021/08/23 00:15:54;;;;;;;6.25;4.10;;;;;;;-139.48;100.00;61774.03;5091277;28;20068;-68
2021/08/23 00:18:38;;;;;;;10.38;3.58;;;;;;;-139.48;100.00;61774.03;5091535;28;20047;-69
2021/08/23 00:21:24;;;;;;;7.28;3.25;;;;;;;-139.48;100.00;61774.03;5092362;28;20044;-69
2021/08/23 00:24:21;;;;;;;4.07;3.40;;;;;;;-139.48;100.00;61774.03;5091356;28;20421;-69
2021/08/23 00:27:05;;;;;;;7.38;3.55;;;;;;;-139.48;100.00;61774.03;5092062;28;20123;-69
2021/08/23 00:29:49;;;;;;;11.20;3.75;;;;;;;-139.48;100.00;61774.03;5091472;28;20145;-69
2021/08/23 00:32:34;;;;;;;4.97;3.42;;;;;;;-139.48;100.00;61774.03;5092421;28;20055;-68
2021/08/23 00:35:18;;;;;;;6.90;3.20;;;;;;;-139.48;100.00;61774.03;5080961;28;20093;-69
2021/08/23 00:38:03;;;;;;;5.22;3.50;;;;;;;-139.48;100.00;61774.03;5095142;28;20055;-69
2021/08/23 00:40:47;;;;;;;7.90;3.40;;;;;;;-139.48;100.00;61774.03;5094879;28;20057;-69
2021/08/23 00:43:31;;;;;;;5.72;3.35;;;;;;;-139.48;100.00;61774.03;5094956;28;20519;-69
2021/08/23 00:46:15;;;;;;;6.28;3.28;;;;;;;-139.48;100.00;61774.03;5094966;28;20092;-69
2021/08/23 00:49:03;;;;;;;8.93;2.97;;;;;;;-139.48;100.00;61774.03;5095300;28;20093;-69
2021/08/23 00:51:47;;;;;;;5.30;3.45;;;;;;;-139.48;100.00;61774.03;5094771;28;20462;-69
2021/08/23 00:54:31;;;;;;;5.78;3.92;;;;;;;-139.48;100.00;61774.03;5095053;28;20047;-69
2021/08/23 00:57:15;;;;;;;4.82;2.90;;;;;;;-139.48;100.00;61774.03;5080573;28;20052;-69
2021/08/23 00:59:59;;;;;;;12.00;3.72;;;;;;;-139.48;100.00;61774.03;5094646;28;20520;-69
2021/08/23 01:02:58;;;;;;;5.57;3.40;;;;;;;-139.48;100.00;61774.03;5094592;28;20058;-69
2021/08/23 01:05:43;;;;;;;6.75;3.30;;;;;;;-139.48;100.00;61774.03;5094597;28;20448;-69
2021/08/23 01:08:40;;;;;;;6.97;3.40;;;;;;;-139.48;100.00;61774.03;5094560;28;20042;-69
2021/08/23 01:11:25;;;;;;;6.45;3.50;;;;;;;-139.48;100.00;61774.03;5094277;28;20051;-67
2021/08/23 01:14:10;;;;;;;5.15;2.85;;;;;;;-139.48;100.00;61774.03;5080683;28;20104;-69
2021/08/23 01:16:53;;;;;;;6.68;3.33;;;;;;;-139.48;100.00;61774.03;5095505;28;20142;-69
2021/08/23 01:19:40;;;;;;;8.32;3.47;;;;;;;-139.48;100.00;61774.03;5095545;28;20054;-69
2021/08/23 01:22:25;;;;;;;4.35;3.20;;;;;;;-139.48;100.00;61774.03;5095207;28;20043;-69
2021/08/23 01:25:11;;;;;;;5.03;3.28;;;;;;;-139.48;100.00;61774.03;5094145;28;20054;-69
2021/08/23 01:28:06;;;;;;;6.95;3.08;;;;;;;-139.48;100.00;61774.03;5093887;28;20066;-68
2021/08/23 01:31:12;;;;;;;7.20;3.45;;;;;;;-139.48;100.00;61774.03;5094394;28;20055;-69
2021/08/23 01:33:56;;;;;;;8.35;3.30;;;;;;;-139.48;100.00;61774.03;5094055;28;20047;-69
2021/08/23 01:36:40;;;;;;;4.75;3.40;;;;;;;-139.48;100.00;61774.03;5093854;28;20062;-69
2021/08/23 01:39:24;;;;;;;5.57;3.20;;;;;;;-139.48;100.00;61774.03;5095620;28;20090;-69
2021/08/23 01:42:08;;;;;;;8.10;3.55;;;;;;;-139.48;100.00;61774.03;5094005;28;20047;-69
2021/08/23 01:44:52;;;;;;;6.35;3.42;;;;;;;-139.48;100.00;61774.03;5078339;28;20279;-69
2021/08/23 01:47:36;;;;;;;9.00;3.22;;;;;;;-139.48;100.00;61774.03;5095003;28;20120;-69
2021/08/23 01:50:19;;;;;;;7.30;2.97;;;;;;;-139.48;100.00;61774.03;5094937;28;20089;-69
2021/08/23 01:53:03;;;;;;;7.85;3.03;;;;;;;-139.48;100.00;61774.03;5079666;28;20067;-69
2021/08/23 01:55:48;;;;;;;12.02;3.60;;;;;;;-139.48;100.00;61774.03;5079504;28;20074;-69
2021/08/23 01:58:31;;;;;;;3.78;2.90;;;;;;;-139.48;100.00;61774.03;5093592;28;20138;-69
2021/08/23 02:01:15;;;;;;;4.70;3.20;;;;;;;-139.48;100.00;61774.03;5094728;28;20507;-69
2021/08/23 02:03:59;;;;;;;8.90;3.40;;;;;;;-139.48;100.00;61774.03;5093910;28;20072;-69
2021/08/23 02:06:43;;;;;;;5.47;2.90;;;;;;;-139.48;100.00;61774.03;5093737;28;20401;-69
2021/08/23 02:09:27;;;;;;;8.85;3.38;;;;;;;-139.48;100.00;61774.03;5093458;28;20055;-69
2021/08/23 02:12:12;;;;;;;7.85;3.33;;;;;;;-139.48;100.00;61774.03;5093077;28;20048;-69
2021/08/23 02:14:56;;;;;;;6.55;3.45;;;;;;;-139.48;100.00;61774.03;5079270;28;20131;-69
2021/08/23 02:17:40;;;;;;;5.32;3.40;;;;;;;-139.48;100.00;61774.03;5094049;28;20512;-69
2021/08/23 02:20:24;;;;;;;5.82;3.03;;;;;;;-139.48;100.00;61774.03;5094058;28;20047;-69
2021/08/23 02:23:08;;;;;;;7.55;3.00;;;;;;;-139.48;100.00;61774.03;5094250;28;20504;-67
2021/08/23 02:25:53;;;;;;;4.40;2.95;;;;;;;-139.48;100.00;61774.03;5078879;28;20047;-69
2021/08/23 02:28:37;;;;;;;5.88;2.85;;;;;;;-139.48;100.00;61774.03;5092736;28;20492;-69
2021/08/23 02:31:21;;;;;;;6.70;2.80;;;;;;;-139.48;100.00;61774.03;5092947;28;20055;-69
2021/08/23 02:34:05;;;;;;;6.63;3.08;;;;;;;-139.48;100.00;61774.03;5092680;28;20124;-68
2021/08/23 02:36:49;;;;;;;5.85;2.85;;;;;;;-139.48;100.00;61774.03;5093121;28;20395;-67
2021/08/23 02:39:33;;;;;;;6.90;3.03;;;;;;;-139.48;100.00;61774.03;5093905;28;20051;-69
2021/08/23 02:42:17;;;;;;;10.98;2.85;;;;;;;-139.48;100.00;61774.03;5092901;28;20484;-69
2021/08/23 02:45:00;;;;;;;8.00;3.30;;;;;;;-139.48;100.00;61774.03;5092678;28;20055;-69
2021/08/23 02:47:44;;;;;;;5.38;3.08;;;;;;;-139.48;100.00;61774.03;5093997;28;20124;-69
2021/08/23 02:50:28;;;;;;;8.00;3.72;;;;;;;-139.48;100.00;61774.03;5078401;28;20051;-69
2021/08/23 02:53:12;;;;;;;6.18;3.05;;;;;;;-139.48;100.00;61774.03;5078098;28;20073;-69
2021/08/23 02:55:56;;;;;;;;;;;;;;;-139.48;100.00;61774.03;5093490;28;20047;-69
2021/08/23 02:58:40;;;;;;;4.90;3.17;;;;;;;-139.48;100.00;61774.03;5093684;28;19998;-69
2021/08/23 03:01:24;;;;;;;5.95;3.25;;;;;;;-139.48;100.00;61774.03;5078381;28;20058;-69
2021/08/23 03:04:08;;;;;;;6.68;3.15;;;;;;;-139.48;100.00;61774.03;5092481;28;20075;-69
2021/08/23 03:06:52;;;;;;;7.43;3.20;;;;;;;-139.48;100.00;61774.03;5078064;28;20062;-68
2021/08/23 03:09:36;;;;;;;6.47;3.03;;;;;;;-139.48;100.00;61774.03;5093345;28;20051;-69
2021/08/23 03:12:20;;;;;;;5.75;3.22;;;;;;;-139.48;100.00;61774.03;5093111;28;20488;-69
2021/08/23 03:15:04;;;;;;;4.05;3.20;;;;;;;-139.48;100.00;61774.03;5093800;28;20373;-69
2021/08/23 03:17:49;;;;;;;7.05;3.13;;;;;;;-139.48;100.00;61774.03;5092135;28;20093;-68
2021/08/23 03:20:33;;;;;;;8.35;3.63;;;;;;;-139.48;100.00;61774.03;5091934;28;20101;-69
2021/08/23 03:23:17;;;;;;;8.25;3.38;;;;;;;-139.48;100.00;61774.03;5093126;28;20119;-69
2021/08/23 03:26:03;;;;;;;6.07;3.85;;;;;;;-139.48;100.00;61774.03;5091997;28;20055;-68
2021/08/23 03:28:47;;;;;;;4.82;3.20;;;;;;;-139.48;100.00;61774.03;5092915;28;20050;-69
2021/08/23 03:31:32;;;;;;;5.65;3.33;;;;;;;-139.48;100.00;61774.03;5091910;28;20515;-69
2021/08/23 03:34:17;;;;;;;9.65;3.55;;;;;;;-139.48;100.00;61774.03;5091961;28;20052;-69
2021/08/23 03:37:01;;;;;;;4.85;3.35;;;;;;;-139.48;100.00;61774.03;5091909;28;20085;-69
2021/08/23 03:39:45;;;;;;;6.47;3.45;;;;;;;-139.48;100.00;61774.03;5092822;28;20043;-69
2021/08/23 03:42:29;;;;;;;7.25;3.22;;;;;;;-139.48;100.00;61774.03;5092771;28;20070;-69
2021/08/23 03:45:12;;;;;;;11.27;3.33;;;;;;;-139.48;100.00;61774.03;5092701;28;20475;-69
2021/08/23 03:47:56;;;;;;;8.35;3.50;;;;;;;-139.48;100.00;61774.03;5091630;28;20055;-68
2021/08/23 03:50:40;;;;;;;6.80;3.75;;;;;;;-139.48;100.00;61774.03;5093233;28;20110;-69
2021/08/23 03:53:24;;;;;;;4.95;3.33;;;;;;;-139.48;100.00;61774.03;5091792;28;20123;-69
2021/08/23 03:56:08;;;;;;;7.53;3.35;;;;;;;-139.48;100.00;61774.03;5077351;28;20101;-69
2021/08/23 03:58:52;;;;;;;5.63;2.97;;;;;;;-139.48;100.00;61774.03;5091474;28;20593;-69
2021/08/23 04:01:36;;;;;;;4.18;2.70;;;;;;;-139.48;100.00;61774.03;5091449;28;20042;-69
2021/08/23 04:04:21;;;;;;;6.63;3.42;;;;;;;-139.48;100.00;61774.03;5093270;28;20047;-69
2021/08/23 04:07:05;;;;;;;5.63;3.20;;;;;;;-139.48;100.00;61774.03;5091319;28;20060;-70
2021/08/23 04:09:49;;;;;;;6.15;2.95;;;;;;;-139.48;100.00;61774.03;5095027;28;20063;-69
2021/08/23 04:12:33;;;;;;;7.20;3.22;;;;;;;-139.48;100.00;61774.03;5095309;28;20105;-69
2021/08/23 04:15:17;;;;;;;4.93;3.58;;;;;;;-139.48;100.00;61774.03;5095874;28;20409;-69
2021/08/23 04:18:01;;;;;;;8.60;3.47;;;;;;;-139.48;100.00;61774.03;5096366;28;20079;-69
2021/08/23 04:20:45;;;;;;;10.02;3.55;;;;;;;-139.48;100.00;61774.03;5095173;28;20212;-69
2021/08/23 04:23:29;;;;;;;5.82;3.55;;;;;;;-139.48;100.00;61774.03;5095475;28;20050;-69
2021/08/23 04:26:13;;;;;;;7.20;3.40;;;;;;;-139.48;100.00;61774.03;5095250;28;20054;-69
2021/08/23 04:28:57;;;;;;;10.70;3.30;;;;;;;-139.48;100.00;61774.03;5094998;28;20083;-71
2021/08/23 04:31:42;;;;;;;9.43;4.43;;;;;;;-139.48;100.00;61774.03;5095226;28;20069;-70
2021/08/23 04:34:25;;;;;;;7.40;3.50;;;;;;;-139.48;100.00;61774.03;5096159;28;20499;-69
2021/08/23 04:37:09;;;;;;;6.63;3.10;;;;;;;-139.48;100.00;61774.03;5095937;28;20520;-69
2021/08/23 04:39:53;;;;;;;7.80;3.33;;;;;;;-139.48;100.00;61774.03;5080447;28;20507;-69
2021/08/23 04:42:37;;;;;;;5.85;3.75;;;;;;;-139.48;100.00;61774.03;5095818;28;20054;-69
2021/08/23 04:45:21;;;;;;;5.95;3.28;;;;;;;-139.48;100.00;61774.03;5096053;28;20048;-70
2021/08/23 04:48:05;;;;;;;9.48;4.00;;;;;;;-139.48;100.00;61774.03;5094544;28;20482;-68
2021/08/23 04:50:49;;;;;;;9.38;3.45;;;;;;;-139.48;100.00;61774.03;5094647;28;20420;-67
2021/08/23 04:53:33;;;;;;;6.13;3.08;;;;;;;-139.48;100.00;61774.03;5095850;28;20385;-68
2021/08/23 04:56:17;;;;;;;8.15;3.60;;;;;;;-139.48;100.00;61774.03;5094503;28;20078;-69
2021/08/23 04:59:02;;;;;;;5.32;3.30;;;;;;;-139.48;100.00;61774.03;5080219;28;20051;-68
2021/08/23 05:01:46;;;;;;;5.78;3.42;;;;;;;-139.48;100.00;61774.03;5094390;28;20097;-68
2021/08/23 05:04:30;;;;;;;3.85;3.42;;;;;;;-139.48;100.00;61774.03;5094277;28;20124;-68
2021/08/23 05:07:14;;;;;;;7.25;3.50;;;;;;;-139.48;100.00;61774.03;5080140;28;20553;-68
2021/08/23 05:09:58;;;;;;;6.65;3.30;;;;;;;-139.48;100.00;61774.03;5095217;28;20066;-68
2021/08/23 05:12:42;;;;;;;8.50;3.30;;;;;;;-139.48;100.00;61774.03;5094527;28;20113;-68
2021/08/23 05:15:26;;;;;;;5.90;3.42;;;;;;;-139.48;100.00;61774.03;5095425;28;20066;-67
2021/08/23 05:18:10;;;;;;;4.20;3.45;;;;;;;-139.48;100.00;61774.03;5094039;28;20512;-68
2021/08/23 05:20:54;;;;;;;4.10;3.13;;;;;;;-139.48;100.00;61774.03;5094302;28;20038;-68
2021/08/23 05:23:38;;;;;;;6.60;3.90;;;;;;;-139.48;100.00;61774.03;5079940;28;20093;-69
2021/08/23 05:26:22;;;;;;;5.68;3.40;;;;;;;-139.48;100.00;61774.03;5094279;28;20046;-68
2021/08/23 05:29:06;;;;;;;7.90;3.58;;;;;;;-139.48;100.00;61774.03;5095366;28;20116;-67
2021/08/23 05:31:50;;;;;;;9.00;3.95;;;;;;;-139.48;100.00;61774.03;5093778;28;20050;-68
2021/08/23 05:34:34;;;;;;;5.75;3.22;;;;;;;-139.48;100.00;61774.03;5095136;28;20067;-69
2021/08/23 05:37:17;;;;;;;7.07;3.25;;;;;;;-139.48;100.00;61774.03;5093916;28;20135;-68
2021/08/23 05:40:02;;;;;;;5.38;3.38;;;;;;;-139.48;100.00;61774.03;5094928;28;20543;-68
2021/08/23 05:42:45;;;;;;;6.93;3.58;;;;;;;-139.48;100.00;61774.03;5093896;28;20089;-68
2021/08/23 05:45:29;;;;;;;7.03;3.15;;;;;;;-139.48;100.00;61774.03;5094940;28;20051;-68
2021/08/23 05:48:16;;;;;;;7.05;3.58;;;;;;;-139.48;100.00;61774.03;5093534;28;20386;-68
2021/08/23 05:51:01;;;;;;;10.45;4.13;;;;;;;-139.48;100.00;61774.03;5094646;28;20405;-69
2021/08/23 05:53:45;;;;;;;7.85;3.45;;;;;;;-139.48;100.00;61774.03;5079911;28;20134;-69
2021/08/23 05:56:29;;;;;;;5.85;3.38;;;;;;;-139.48;100.00;61774.03;5093352;28;20093;-68
2021/08/23 05:59:13;;;;;;;6.68;3.55;;;;;;;-139.48;100.00;61774.03;5093640;28;20472;-68
2021/08/23 06:01:57;;;;;;;7.72;3.80;;;;;;;-139.48;100.00;61774.03;5093532;28;20047;-68
2021/08/23 06:04:41;;;;;;;9.85;3.92;;;;;;;-139.48;100.00;61774.03;5093769;28;20069;-67
2021/08/23 06:07:25;;;;;;;5.63;3.50;;;;;;;-139.48;100.00;61774.03;5093303;28;20051;-68
2021/08/23 06:10:13;;;;;;;9.07;3.55;;;;;;;-139.48;100.00;61774.03;5093338;28;20405;-68
2021/08/23 06:12:56;;;;;;;9.27;3.50;;;;;;;-139.48;100.00;61774.03;5092909;28;20051;-69
2021/08/23 06:15:40;;;;;;;5.22;3.30;;;;;;;-139.48;100.00;61774.03;5079181;28;20169;-69
2021/08/23 06:18:24;;;;;;;4.97;3.17;;;;;;;-139.48;100.00;61774.03;5092924;28;20073;-68
2021/08/23 06:21:09;;;;;;;5.05;3.05;;;;;;;-139.48;100.00;61774.03;5094049;28;20420;-68
2021/08/23 06:23:53;;;;;;;5.60;3.10;;;;;;;-139.48;100.00;61774.03;5092874;28;20054;-69
2021/08/23 06:26:37;;;;;;;10.85;3.15;;;;;;;-139.48;100.00;61774.03;5094114;28;20127;-68
2021/08/23 06:29:21;;;;;;;6.47;3.40;;;;;;;-139.48;100.00;61774.03;5092725;28;20051;-68
2021/08/23 06:32:06;;;;;;;4.65;3.53;;;;;;;-139.48;100.00;61774.03;5093087;28;20185;-68
2021/08/23 06:34:50;;;;;;;7.90;3.10;;;;;;;-139.48;100.00;61774.03;5092960;28;20098;-66
2021/08/23 06:37:36;;;;;;;10.13;3.17;;;;;;;-139.48;100.00;61774.03;5093849;28;20470;-69
2021/08/23 06:40:20;;;;;;;6.68;3.17;;;;;;;-139.48;100.00;61774.03;5092860;28;20051;-68
2021/08/23 06:43:04;;;;;;;7.60;3.53;;;;;;;-139.48;100.00;61774.03;5093777;28;20401;-69
2021/08/23 06:45:48;;;;;;;7.55;3.10;;;;;;;-139.48;100.00;61774.03;5078469;28;20050;-69
2021/08/23 06:48:32;;;;;;;5.45;3.03;;;;;;;-139.48;100.00;61774.03;5092585;28;20092;-69
2021/08/23 06:51:20;;;;;;;4.95;2.72;;;;;;;-139.48;100.00;61774.03;5093318;28;20413;-69
2021/08/23 06:54:04;;;;;;;3.88;2.70;;;;;;;-139.48;100.00;61774.03;5092546;28;20109;-68
2021/08/23 06:56:48;;;;;;;4.50;2.95;;;;;;;-139.48;100.00;61774.03;5092133;28;20531;-68
2021/08/23 06:59:32;;;;;;;5.55;3.40;;;;;;;-139.48;100.00;61774.03;5093591;28;20093;-68
2021/08/23 07:02:17;;;;;;;8.05;3.05;;;;;;;-139.48;100.00;61774.03;5092380;28;20055;-68
2021/08/23 07:05:00;;;;;;;7.20;3.35;;;;;;;-139.48;100.00;61774.03;5092359;28;20478;-69
2021/08/23 07:07:44;;;;;;;6.25;3.08;;;;;;;-139.48;100.00;61774.03;5093172;28;20081;-68
2021/08/23 07:10:28;;;;;;;10.30;3.50;;;;;;;-139.48;100.00;61774.03;5093610;28;20074;-69
2021/08/23 07:13:12;;;;;;;5.32;3.22;;;;;;;-139.48;100.00;61774.03;5077639;28;20135;-69
2021/08/23 07:15:57;;;;;;;4.50;3.40;;;;;;;-139.48;100.00;61774.03;5092153;28;20052;-69
2021/08/23 07:18:41;;;;;;;8.82;3.50;;;;;;;-139.48;100.00;61774.03;5077639;28;20050;-69
2021/08/23 07:21:24;;;;;;;5.35;3.08;;;;;;;-139.48;100.00;61774.03;5091751;28;20043;-68
2021/08/23 07:24:10;;;;;;;9.98;3.22;;;;;;;-139.48;100.00;61774.03;5091813;28;20118;-69
2021/08/23 07:26:54;;;;;;;4.10;2.95;;;;;;;-139.48;100.00;61774.03;5091725;28;20086;-69
2021/08/23 07:29:38;;;;;;;5.85;3.22;;;;;;;-139.48;100.00;61774.03;5091711;28;20074;-69
2021/08/23 07:32:22;;;;;;;4.75;3.13;;;;;;;-139.48;100.00;61774.03;5091900;28;20055;-67
2021/08/23 07:35:06;;;;;;;3.40;3.03;;;;;;;-139.48;100.00;61774.03;5091612;28;20051;-69
2021/08/23 07:37:50;;;;;;;3.67;2.88;;;;;;;-139.48;100.00;61774.03;5093168;28;20050;-66
2021/08/23 07:40:34;;;;;;;6.97;2.97;;;;;;;-139.48;100.00;61774.03;5091755;28;20093;-66
2021/08/23 07:43:19;;;;;;;5.82;2.85;;;;;;;-139.48;100.00;61774.03;5092891;28;20109;-66
2021/08/23 07:46:03;;;;;;;5.90;2.97;;;;;;;-139.48;100.00;61774.03;5091525;28;20047;-66
2021/08/23 07:48:47;;;;;;;4.68;3.13;;;;;;;-139.48;100.00;61774.03;5091739;28;20149;-66
2021/08/23 07:51:31;;;;;;;4.15;2.90;;;;;;;-139.48;100.00;61774.03;5091359;28;20047;-65
2021/08/23 07:54:17;;;;;;;6.30;2.75;;;;;;;-139.48;100.00;61774.03;5091638;28;20047;-65
2021/08/23 07:57:01;;;;;;;4.72;2.63;;;;;;;-139.48;100.00;61774.03;5091343;28;20063;-65
2021/08/23 07:59:45;;;;;;;8.23;3.22;;;;;;;-139.48;100.00;61774.03;5091566;28;20133;-65
2021/08/23 08:02:29;;;;;;;5.95;3.33;;;;;;;-139.48;100.00;61774.03;5092612;28;20039;-66
2021/08/23 08:05:13;;;;;;;5.57;2.92;;;;;;;-139.48;100.00;61774.03;5077100;28;20098;-65
2021/08/23 08:07:57;;;;;;;;;;;;;;;-139.48;100.00;61774.03;5077461;28;20046;-66
2021/08/23 08:10:41;;;;;;;6.40;2.88;;;;;;;-139.48;100.00;61774.03;5092464;28;20360;-66
2021/08/23 08:13:25;;;;;;;4.90;3.08;;;;;;;-139.48;100.00;61774.03;5092266;28;20047;-66
2021/08/23 08:16:09;;;;;;;4.70;2.92;;;;;;;-139.48;100.00;61774.03;5091492;28;20416;-66
2021/08/23 08:18:54;;;;;;;4.10;2.55;;;;;;;-139.48;100.00;61774.03;5092464;28;20424;-66
2021/08/23 08:21:38;;;;;;;4.50;2.60;;;;;;;-139.48;100.00;61774.03;5077283;28;20071;-66
2021/08/23 08:24:22;;;;;;;6.82;3.20;;;;;;;-139.48;100.00;61774.03;5091685;28;20071;-66
2021/08/23 08:27:06;;;;;;;4.07;2.83;;;;;;;-139.48;100.00;61774.03;5092108;28;20527;-66
2021/08/23 08:29:50;;;;;;;5.53;2.70;;;;;;;-139.48;100.00;61774.03;5092220;28;20047;-64
2021/08/23 08:32:34;;;;;;;;;;;;;;;-139.48;100.00;61774.03;5092573;28;20069;-63
2021/08/23 08:35:18;;;;;;;6.23;3.27;;;;;;;-139.48;100.00;61774.03;5090824;28;19964;-66
2021/08/23 08:38:02;;;;;;;3.55;2.35;;;;;;;-139.48;100.00;61774.03;5091214;28;20043;-66
2021/08/23 08:40:47;;;;;;;4.35;2.80;;;;;;;-139.48;100.00;61774.03;5091079;28;20089;-65
2021/08/23 08:43:32;;;;;;;3.10;2.53;;;;;;;-139.48;100.00;61774.03;5076944;28;20075;-66
2021/08/23 08:46:15;;;;;;;6.57;2.80;;;;;;;-139.48;100.00;61774.03;5076465;28;20066;-66
2021/08/23 08:48:59;;;;;;;;;;;;;;;-139.48;100.00;61774.03;5077394;28;20184;-66
2021/08/23 08:51:45;;;;;;;5.33;3.03;;;;;;;-139.48;100.00;61774.03;5091142;28;19942;-66
2021/08/23 08:54:29;;;;;;;5.07;2.83;;;;;;;-139.48;100.00;61774.03;5093237;28;20069;-66
2021/08/23 08:57:13;;;;;;;4.20;2.40;;;;;;;-139.48;100.00;61774.03;5094800;28;20072;-66
2021/08/23 08:59:57;;;;;;;4.05;3.28;;;;;;;-139.48;100.00;61774.03;5094971;28;20135;-66
2021/08/23 09:02:53;;;;;;;5.07;3.40;;;;;;;-139.48;100.00;61774.03;5095533;28;20067;-66
2021/08/23 09:05:51;;;;;;;4.18;2.58;;;;;;;-139.48;100.00;61774.03;5095427;28;20073;-66
2021/08/23 09:08:43;;;;;;;3.58;2.88;;;;;;;-139.48;100.00;61774.03;5094193;28;20094;-65
2021/08/23 09:11:27;;;;;;;4.90;2.70;;;;;;;-139.48;100.00;61774.03;5094654;28;20070;-66
2021/08/23 09:14:11;;;;;;;6.80;3.10;;;;;;;-139.48;100.00;61774.03;5080222;28;20051;-66
2021/08/23 09:17:02;;;;;;;;;;;;;;;-139.48;100.00;61774.03;5080250;28;20409;-66
2021/08/23 09:19:56;;;;;;;4.28;2.67;;;;;;;-139.48;100.00;61774.03;5094345;28;19919;-66
2021/08/23 09:22:40;;;;;;;6.25;3.25;;;;;;;-139.48;100.00;61774.03;5094398;28;20122;-66
2021/08/23 09:25:25;;;;;;;5.32;3.10;;;;;;;-139.48;100.00;61774.03;5095100;28;20063;-66
2021/08/23 09:28:10;;;;;;;6.38;3.08;;;;;;;-139.48;100.00;61774.03;5094020;28;20070;-66
2021/08/23 09:30:58;;;;;;;6.30;3.15;;;;;;;-139.48;100.00;61774.03;5094124;28;20078;-66
2021/08/23 09:33:46;;;;;;;5.95;3.30;;;;;;;-139.48;100.00;61774.03;5094163;28;20039;-65
2021/08/23 09:36:31;;;;;;;4.68;2.88;;;;;;;-139.48;100.00;61774.03;5094827;28;20043;-65
2021/08/23 09:39:16;;;;;;;4.25;2.53;;;;;;;-139.48;100.00;61774.03;5094079;28;20404;-66
2021/08/23 09:42:06;;;;;;;4.13;2.55;;;;;;;-139.48;100.00;61774.03;5094019;28;20082;-66
2021/08/23 09:44:52;;;;;;;3.33;3.03;;;;;;;-139.48;100.00;61774.03;5093920;28;20081;-65
2021/08/23 09:47:36;;;;;;;2.97;2.22;;;;;;;-139.48;100.00;61774.03;5093686;28;20113;-66
2021/08/23 09:50:20;;;;;;;6.05;3.05;;;;;;;-139.48;100.00;61774.03;5079561;28;20097;-66
2021/08/23 09:53:07;;;;;;;;;;;;;;;-139.48;100.00;61774.03;5095195;28;20067;-66
2021/08/23 09:55:52;;;;;;;5.55;3.25;;;;;;;-139.48;100.00;61774.03;5094788;28;19942;-65
2021/08/23 09:58:36;;;;;;;;;;;;;;;-139.48;100.00;61774.03;5093796;28;20059;-66
2021/08/23 10:01:20;;;;;;;5.32;3.55;;;;;;;-139.48;100.00;61774.03;5093671;28;20327;-66
2021/08/23 10:04:04;;;;;;;6.03;3.40;;;;;;;-139.48;100.00;61774.03;5094625;28;20051;-66
2021/08/23 10:06:49;;;;;;;4.70;3.38;;;;;;;-139.48;100.00;61774.03;5092314;28;20572;-66
2021/08/23 10:09:33;;;;;;;4.68;3.15;;;;;;;-139.48;100.00;61774.03;5093427;28;20508;-66
2021/08/23 10:12:17;;;;;;;4.07;3.10;;;;;;;-139.48;100.00;61774.03;5093366;28;20487;-66
2021/08/23 10:15:01;;;;;;;;;;;;;;;-139.48;100.00;61774.03;5079508;28;20503;-66
2021/08/23 10:17:45;;;;;;;4.17;3.23;;;;;;;-139.48;100.00;61774.03;5079141;28;19935;-66
2021/08/23 10:20:29;;;;;;;3.95;3.30;;;;;;;-139.48;100.00;61774.03;5093315;28;20128;-66
2021/08/23 10:23:15;;;;;;;4.18;3.08;;;;;;;-139.48;100.00;61774.03;5093163;28;20077;-66
2021/08/23 10:25:59;;;;;;;3.78;2.90;;;;;;;-139.48;100.00;61774.03;5092939;28;20444;-66
2021/08/23 10:28:50;;;;;;;4.03;3.10;;;;;;;-139.48;100.00;61774.03;5092958;28;20050;-66
2021/08/23 10:31:36;;;;;;;2.78;2.58;;;;;;;-139.48;100.00;61774.03;5093723;28;20519;-66
2021/08/23 10:34:21;;;;;;;4.25;3.00;;;;;;;-139.48;100.00;61774.03;5092794;28;20105;-66
2021/08/23 10:37:23;;;;;;;5.65;2.83;;;;;;;-139.48;100.00;61774.03;5092811;28;20125;-66
2021/08/23 10:40:07;;;;;;;4.97;3.00;;;;;;;-139.48;100.00;61774.03;5093824;28;20047;-66
2021/08/23 10:42:52;;;;;;;4.47;2.80;;;;;;;-139.48;100.00;61774.03;5092739;28;20063;-66
2021/08/23 10:45:38;;;;;;;3.88;2.85;;;;;;;-139.48;100.00;61774.03;5092466;28;20542;-66
2021/08/23 10:48:22;;;;;;;5.18;3.33;;;;;;;-139.48;100.00;61774.03;5092376;28;20051;-66
2021/08/23 10:51:06;;;;;;;4.47;3.03;;;;;;;-139.48;100.00;61774.03;5093564;28;20500;-66
2021/08/23 10:53:50;;;;;;;5.18;3.40;;;;;;;-139.48;100.00;61774.03;5092816;28;20097;-67
2021/08/23 10:56:35;;;;;;;;;;;;;;;-139.48;100.00;61774.03;5092826;28;20127;-65
2021/08/23 10:59:19;;;;;;;5.68;3.30;;;;;;;-139.48;100.00;61774.03;5092388;28;20011;-66
2021/08/23 11:02:03;;;;;;;3.60;3.13;;;;;;;-139.48;100.00;61774.03;5092579;28;20105;-65
2021/08/23 11:04:56;;;;;;;3.20;2.90;;;;;;;-139.48;100.00;61774.03;5092186;28;20046;-66
2021/08/23 11:07:43;;;;;;;3.33;2.95;;;;;;;-139.48;100.00;61774.03;5092079;28;20065;-66
2021/08/23 11:10:26;;;;;;;5.43;3.05;;;;;;;-139.48;100.00;61774.03;5078084;28;20350;-65
2021/08/23 11:13:18;;;;;;;2.92;2.63;;;;;;;-139.48;100.00;61774.03;5093223;28;20454;-65
2021/08/23 11:16:08;;;;;;;4.60;3.00;;;;;;;-139.48;100.00;61774.03;5077645;28;20051;-66
2021/08/23 11:18:52;;;;;;;2.65;2.45;;;;;;;-139.48;100.00;61774.03;5091987;28;20090;-66
2021/08/23 11:21:36;;;;;;;;;;;;;;;-139.48;100.00;61774.03;5092715;28;20066;-65
2021/08/23 11:24:20;;;;;;;2.60;2.40;;;;;;;-139.48;100.00;61774.03;5093080;28;20400;-66
2021/08/23 11:27:04;;;;;;;3.67;2.00;;;;;;;-139.48;100.00;61774.03;5093066;28;20058;-66
2021/08/23 11:29:50;;;;;;;3.85;2.30;;;;;;;-139.48;100.00;61774.03;5092055;28;20066;-66
2021/08/23 11:32:34;;;;;;;2.42;2.10;;;;;;;-139.48;100.00;61774.03;5091613;28;20047;-65
2021/08/23 11:35:18;;;;;;;2.67;2.47;;;;;;;-139.48;100.00;61774.03;5077702;28;20051;-66
2021/08/23 11:38:04;;;;;;;;;;;;;;;-139.48;100.00;61774.03;5092019;28;20050;-66
2021/08/23 11:40:48;;;;;;;4.15;2.13;;;;;;;-139.48;100.00;61774.03;5092679;28;19965;-66
2021/08/23 11:43:33;;;;;;;2.65;2.17;;;;;;;-139.48;100.00;61774.03;5091711;28;20046;-66
2021/08/23 11:46:17;;;;;;;2.08;1.85;;;;;;;-139.48;100.00;61774.03;5092009;28;20069;-66
2021/08/23 11:49:01;;;;;;;;;;;;;;;-139.48;100.00;61774.03;5093347;28;20059;-66
2021/08/23 11:51:45;;;;;;;3.88;1.90;;;;;;;-139.48;100.00;61774.03;5091510;28;19923;-66
2021/08/23 11:54:29;;;;;;;;;;;;;;;-139.48;100.00;61774.03;5093215;28;20039;-66
2021/08/23 11:57:17;;;;;;;1.65;1.55;;;;;;;-139.48;100.00;61774.03;5077643;28;20296;-66
2021/08/23 12:00:04;;;;;;;1.75;1.52;;;;;;;-139.48;100.00;61774.03;5091445;28;20113;-66
2021/08/23 12:02:47;;;;;;;1.45;1.35;;;;;;;-139.48;100.00;61774.03;5092547;28;20400;-66
2021/08/23 12:05:52;;;;;;;2.15;1.50;;;;;;;-139.48;100.00;61774.03;5091768;28;20043;-66
2021/08/23 12:08:38;;;;;;;1.35;1.25;;;;;;;-139.48;100.00;61774.03;5092952;28;20051;-66
2021/08/23 12:11:22;;;;;;;1.40;1.30;;;;;;;-139.48;100.00;61774.03;5091627;28;20047;-66
2021/08/23 12:14:16;;;;;;;2.03;1.52;;;;;;;-139.48;100.00;61774.03;5092691;28;20409;-66
2021/08/23 12:17:07;;;;;;;1.35;1.25;;;;;;;-139.48;100.00;61774.03;5091561;28;20082;-66
2021/08/23 12:20:03;;;;;;;1.98;1.40;;;;;;;-139.48;100.00;61774.03;5091981;28;20047;-66
2021/08/23 12:22:47;;;;;;;1.63;1.50;;;;;;;-139.48;100.00;61774.03;5092926;28;20044;-66
2021/08/23 12:25:31;;;;;;;1.50;1.40;;;;;;;-139.48;100.00;61774.03;5091590;28;20455;-66
2021/08/23 12:28:16;;;;;;;1.48;1.38;;;;;;;-139.48;100.00;61774.03;5092200;28;20094;-66
2021/08/23 12:31:05;;;;;;;1.75;1.35;;;;;;;-139.48;100.00;61774.03;5095011;28;20050;-66
2021/08/23 12:33:50;;;;;;;1.38;1.33;;;;;;;-139.48;100.00;61774.03;5095409;28;20503;-66